createdAt,value
2019-04-21T00:00:11.863Z,14.37
2019-04-21T00:02:40.946Z,14.50
2019-04-21T00:05:49.897Z,13.40
2019-04-21T00:08:03.644Z,16.03
2019-04-21T00:10:33.357Z,13.80
2019-04-21T00:12:56.173Z,13.90
2019-04-21T00:15:20.232Z,14.87
2019-04-21T00:17:43.600Z,16.37
2019-04-21T00:20:20.424Z,15.10
2019-04-21T00:22:53.583Z,14.27
2019-04-21T00:25:28.936Z,15.80
2019-04-21T00:27:58.852Z,14.87
2019-04-21T00:30:34.251Z,14.80
2019-04-21T00:32:54.111Z,14.97
2019-04-21T00:35:20.574Z,14.93
2019-04-21T00:38:09.470Z,14.17
2019-04-21T00:40:34.935Z,15.63
2019-04-21T00:43:04.983Z,16.47
2019-04-21T00:45:32.550Z,14.93
2019-04-21T00:48:14.429Z,15.43
2019-04-21T00:50:53.023Z,16.43
2019-04-21T00:53:22.203Z,16.27
2019-04-21T00:56:11.686Z,16.03
2019-04-21T00:58:30.047Z,14.87
2019-04-21T01:00:51.382Z,15.13
2019-04-21T01:03:26.674Z,16.07
2019-04-21T01:06:09.798Z,16.73
2019-04-21T01:08:28.209Z,14.77
2019-04-21T01:10:48.991Z,16.03
2019-04-21T01:13:27.744Z,16.20
2019-04-21T01:16:14.765Z,16.27
2019-04-21T01:18:29.632Z,16.23
2019-04-21T01:20:35.012Z,19.13
2019-04-21T01:23:04.364Z,17.10
2019-04-21T01:25:38.154Z,15.83
2019-04-21T01:28:18.853Z,18.30
2019-04-21T01:30:53.474Z,16.90
2019-04-21T01:33:39.681Z,20.77
2019-04-21T01:36:06.290Z,19.00
2019-04-21T01:38:40.324Z,18.10
2019-04-21T01:41:15.541Z,18.40
2019-04-21T01:43:33.479Z,18.33
2019-04-21T01:46:07.706Z,23.57
2019-04-21T01:48:37.793Z,18.47
2019-04-21T01:51:05.386Z,18.93
2019-04-21T01:54:07.640Z,20.27
2019-04-21T01:57:04.359Z,20.70
2019-04-21T01:59:30.477Z,19.70
2019-04-21T02:02:10.739Z,20.17
2019-04-21T02:04:41.826Z,19.70
2019-04-21T02:07:09.397Z,21.33
2019-04-21T02:10:00.468Z,20.77
2019-04-21T02:12:14.789Z,20.27
2019-04-21T02:14:54.469Z,24.07
2019-04-21T02:17:14.017Z,20.90
2019-04-21T02:19:37.494Z,20.70
2019-04-21T02:22:10.781Z,21.43
2019-04-21T02:24:49.640Z,21.83
2019-04-21T02:27:17.367Z,21.53
2019-04-21T02:29:47.417Z,19.60
2019-04-21T02:35:04.147Z,21.23
2019-04-21T02:37:38.146Z,21.10
2019-04-21T02:42:31.121Z,23.93
2019-04-21T02:47:38.973Z,22.50
2019-04-21T02:54:53.421Z,21.63
2019-04-21T03:00:06.785Z,23.00
2019-04-21T03:02:46.918Z,21.23
2019-04-21T03:08:03.481Z,21.33
2019-04-21T03:10:45.563Z,22.63
2019-04-21T03:13:19.469Z,22.73
2019-04-21T03:15:39.581Z,25.53
2019-04-21T03:18:13.013Z,22.47
2019-04-21T03:20:48.643Z,22.10
2019-04-21T03:23:23.966Z,26.07
2019-04-21T03:33:58.731Z,22.33
2019-04-21T03:40:57.769Z,24.67
2019-04-21T03:45:58.779Z,26.73
2019-04-21T03:48:35.592Z,23.80
2019-04-21T03:51:32.964Z,26.10
2019-04-21T03:56:27.066Z,27.90
2019-04-21T03:59:01.965Z,25.00
2019-04-21T04:05:03.589Z,26.90
2019-04-21T04:07:34.066Z,26.37
2019-04-21T04:10:08.186Z,29.27
2019-04-21T04:12:24.571Z,26.00
2019-04-21T04:14:50.178Z,29.03
2019-04-21T04:20:01.083Z,33.50
2019-04-21T04:22:30.935Z,29.23
2019-04-21T04:29:59.363Z,29.50
2019-04-21T04:32:28.633Z,33.77
2019-04-21T04:35:05.608Z,29.83
2019-04-21T04:37:31.983Z,31.37
2019-04-21T04:40:10.434Z,30.93
2019-04-21T04:42:45.583Z,33.50
2019-04-21T04:45:30.649Z,29.47
2019-04-21T04:47:42.694Z,27.97
2019-04-21T04:50:09.923Z,29.50
2019-04-21T04:58:07.629Z,34.43
2019-04-21T05:03:18.905Z,36.90
2019-04-21T05:06:37.235Z,31.80
2019-04-21T05:11:33.701Z,32.53
2019-04-21T05:14:01.125Z,32.00
2019-04-21T05:16:35.074Z,34.63
2019-04-21T05:18:52.850Z,38.97
2019-04-21T05:21:29.745Z,38.03
2019-04-21T05:23:45.665Z,41.23
2019-04-21T05:26:06.672Z,37.50
2019-04-21T05:28:38.503Z,38.07
2019-04-21T05:31:46.310Z,37.33
2019-04-21T05:34:18.853Z,36.87
2019-04-21T05:36:52.029Z,38.77
2019-04-21T05:39:24.823Z,39.33
2019-04-21T05:41:49.096Z,41.03
2019-04-21T05:44:35.410Z,40.10
2019-04-21T05:49:42.122Z,41.37
2019-04-21T05:52:12.067Z,39.40
2019-04-21T05:54:52.858Z,39.77
2019-04-21T05:57:09.926Z,41.63
2019-04-21T05:59:43.719Z,41.53
2019-04-21T06:02:39.454Z,37.50
2019-04-21T06:05:18.478Z,37.03
2019-04-21T06:12:23.581Z,36.57
2019-04-21T06:17:23.675Z,43.00
2019-04-21T06:19:57.194Z,39.50
2019-04-21T06:22:19.805Z,38.77
2019-04-21T06:27:29.877Z,37.10
2019-04-21T06:29:55.773Z,37.97
2019-04-21T06:40:16.934Z,36.37
2019-04-21T06:42:34.232Z,38.77
2019-04-21T06:45:10.415Z,40.53
2019-04-21T06:47:51.378Z,37.43
2019-04-21T06:50:07.588Z,38.53
2019-04-21T06:55:12.463Z,34.07
2019-04-21T06:57:40.276Z,36.10
2019-04-21T07:00:10.113Z,34.40
2019-04-21T07:05:08.949Z,34.87
2019-04-21T07:07:43.291Z,35.23
2019-04-21T07:10:10.362Z,34.10
2019-04-21T07:12:39.383Z,37.70
2019-04-21T07:15:11.339Z,35.73
2019-04-21T07:17:38.837Z,36.40
2019-04-21T07:20:15.822Z,35.40
2019-04-21T07:22:44.611Z,35.67
2019-04-21T07:25:15.380Z,34.10
2019-04-21T07:27:49.268Z,33.03
2019-04-21T07:30:14.964Z,34.33
2019-04-21T07:32:49.726Z,32.23
2019-04-21T07:35:17.161Z,34.10
2019-04-21T07:37:51.850Z,38.10
2019-04-21T07:40:09.106Z,31.90
2019-04-21T07:42:37.998Z,31.80
2019-04-21T07:45:11.923Z,36.83
2019-04-21T07:47:50.649Z,32.77
2019-04-21T07:50:31.860Z,33.87
2019-04-21T07:53:14.194Z,34.97
2019-04-21T07:55:38.015Z,32.43
2019-04-21T07:58:27.601Z,35.50
2019-04-21T08:01:09.541Z,31.80
2019-04-21T08:03:26.496Z,34.00
2019-04-21T08:05:58.854Z,33.37
2019-04-21T08:08:26.609Z,31.77
2019-04-21T08:10:56.984Z,31.73
2019-04-21T08:13:34.264Z,33.53
2019-04-21T08:15:58.324Z,33.77
2019-04-21T08:18:35.364Z,33.40
2019-04-21T08:21:01.280Z,31.60
2019-04-21T08:23:31.919Z,31.93
2019-04-21T08:26:04.765Z,33.20
2019-04-21T08:28:35.495Z,38.73
2019-04-21T08:31:01.292Z,34.07
2019-04-21T08:33:38.365Z,32.23
2019-04-21T08:38:36.232Z,31.40
2019-04-21T08:46:05.451Z,30.47
2019-04-21T08:48:37.560Z,30.80
2019-04-21T08:51:14.024Z,30.67
2019-04-21T08:54:05.527Z,30.67
2019-04-21T08:56:34.386Z,28.10
2019-04-21T08:59:18.950Z,28.67
2019-04-21T09:01:53.203Z,28.43
2019-04-21T09:04:26.138Z,26.23
2019-04-21T09:09:22.389Z,28.50
2019-04-21T09:11:54.312Z,34.20
2019-04-21T09:14:25.418Z,33.87
2019-04-21T09:16:51.333Z,32.13
2019-04-21T09:19:33.985Z,32.47
2019-04-21T09:21:57.823Z,35.10
2019-04-21T09:24:26.667Z,30.03
2019-04-21T09:26:52.671Z,29.83
2019-04-21T09:29:17.234Z,32.03
2019-04-21T09:31:41.807Z,29.20
2019-04-21T09:34:08.958Z,25.00
2019-04-21T09:36:45.955Z,24.23
2019-04-21T09:39:16.529Z,19.57
2019-04-21T09:41:42.761Z,20.27
2019-04-21T09:44:17.280Z,19.30
2019-04-21T09:46:49.875Z,17.37
2019-04-21T09:49:16.328Z,20.33
2019-04-21T09:51:43.696Z,21.17
2019-04-21T09:54:20.470Z,18.77
2019-04-21T09:56:51.058Z,19.40
2019-04-21T09:59:23.065Z,18.63
2019-04-21T10:01:56.831Z,19.63
2019-04-21T10:04:14.298Z,19.43
2019-04-21T10:06:43.229Z,20.03
2019-04-21T10:09:14.894Z,20.03
2019-04-21T10:12:03.035Z,20.87
2019-04-21T10:14:33.020Z,19.77
2019-04-21T10:17:19.803Z,17.80
2019-04-21T10:19:48.576Z,18.20
2019-04-21T10:22:17.298Z,17.57
2019-04-21T10:24:46.722Z,17.27
2019-04-21T10:27:16.975Z,17.20
2019-04-21T10:29:47.219Z,17.80
2019-04-21T10:32:18.672Z,15.73
2019-04-21T10:34:47.528Z,16.47
2019-04-21T10:37:16.696Z,16.83
2019-04-21T10:39:45.489Z,17.13
2019-04-21T10:42:15.315Z,18.93
2019-04-21T10:44:45.162Z,18.80
2019-04-21T10:47:14.519Z,16.40
2019-04-21T10:49:44.564Z,16.27
2019-04-21T10:52:22.734Z,18.67
2019-04-21T10:55:11.264Z,19.27
2019-04-21T10:57:28.551Z,17.33
2019-04-21T10:59:58.223Z,15.67
2019-04-21T11:02:43.342Z,13.47
2019-04-21T11:05:12.521Z,14.17
2019-04-21T11:08:01.163Z,13.57
2019-04-21T11:10:22.296Z,14.40
2019-04-21T11:12:52.500Z,12.87
2019-04-21T11:15:21.711Z,13.63
2019-04-21T11:17:52.740Z,14.57
2019-04-21T11:20:22.609Z,16.97
2019-04-21T11:22:51.527Z,14.20
2019-04-21T11:25:20.178Z,15.07
2019-04-21T11:27:51.190Z,16.67
2019-04-21T11:30:20.283Z,15.60
2019-04-21T11:32:51.017Z,14.27
2019-04-21T11:35:21.153Z,14.97
2019-04-21T11:37:50.297Z,14.93
2019-04-21T11:40:21.618Z,14.90
2019-04-21T11:42:49.621Z,16.50
2019-04-21T11:45:28.791Z,17.20
2019-04-21T11:48:08.519Z,13.80
2019-04-21T11:50:37.178Z,15.03
2019-04-21T11:53:07.089Z,16.97
2019-04-21T11:55:39.562Z,17.37
2019-04-21T11:58:07.714Z,16.87
2019-04-21T12:00:37.738Z,14.70
2019-04-21T12:03:06.847Z,17.00
2019-04-21T12:05:35.514Z,18.47
2019-04-21T12:08:15.817Z,18.73
2019-04-21T12:10:35.539Z,17.67
2019-04-21T12:13:07.242Z,18.00
2019-04-21T12:15:35.019Z,17.73
2019-04-21T12:18:03.919Z,16.73
2019-04-21T12:20:33.430Z,18.07
2019-04-21T12:23:04.667Z,17.00
2019-04-21T12:25:38.929Z,17.83
2019-04-21T12:28:07.937Z,20.57
2019-04-21T12:30:37.799Z,20.40
2019-04-21T12:33:10.048Z,21.00
2019-04-21T12:35:39.741Z,20.10
2019-04-21T12:38:08.883Z,25.10
2019-04-21T12:40:39.784Z,22.90
2019-04-21T12:43:08.528Z,23.50
2019-04-21T12:45:37.814Z,24.17
2019-04-21T12:48:08.248Z,24.07
2019-04-21T12:50:37.082Z,24.03
2019-04-21T12:53:05.823Z,24.97
2019-04-21T12:55:37.366Z,24.03
2019-04-21T12:58:05.528Z,26.03
2019-04-21T13:00:34.543Z,25.03
2019-04-21T13:03:03.663Z,26.53
2019-04-21T13:05:33.790Z,25.50
2019-04-21T13:08:03.705Z,24.77
2019-04-21T13:10:33.852Z,25.60
2019-04-21T13:13:05.872Z,25.97
2019-04-21T13:15:35.655Z,27.93
2019-04-21T13:18:04.619Z,27.50
2019-04-21T13:20:34.081Z,28.83
2019-04-21T13:23:03.917Z,26.20
2019-04-21T13:25:33.852Z,25.30
2019-04-21T13:28:02.927Z,27.80
2019-04-21T13:30:32.654Z,26.23
2019-04-21T13:33:01.351Z,26.60
2019-04-21T13:35:30.963Z,25.83
2019-04-21T13:38:00.528Z,27.57
2019-04-21T13:40:57.024Z,27.87
2019-04-21T13:43:14.844Z,29.20
2019-04-21T13:45:45.696Z,27.83
2019-04-21T13:48:14.857Z,24.47
2019-04-21T13:50:43.666Z,27.20
2019-04-21T13:53:12.491Z,26.13
2019-04-21T13:55:42.508Z,26.80
2019-04-21T13:58:12.472Z,27.20
2019-04-21T14:00:42.064Z,27.00
2019-04-21T14:03:12.381Z,27.57
2019-04-21T14:05:42.424Z,26.97
2019-04-21T14:08:11.351Z,26.10
2019-04-21T14:10:40.128Z,25.13
2019-04-21T14:13:08.880Z,25.50
2019-04-21T14:15:37.863Z,25.90
2019-04-21T14:18:06.920Z,25.63
2019-04-21T14:20:35.886Z,26.70
2019-04-21T14:23:17.224Z,24.87
2019-04-21T14:25:35.600Z,26.80
2019-04-21T14:28:04.354Z,26.30
2019-04-21T14:30:34.512Z,25.47
2019-04-21T14:33:04.433Z,24.37
2019-04-21T14:35:34.702Z,25.07
2019-04-21T14:38:04.865Z,24.83
2019-04-21T14:40:36.683Z,24.60
2019-04-21T14:43:05.879Z,23.30
2019-04-21T14:45:54.710Z,23.77
2019-04-21T14:48:41.295Z,22.30
2019-04-21T14:51:29.372Z,21.33
2019-04-21T14:54:20.899Z,20.80
2019-04-21T14:56:49.643Z,20.57
2019-04-21T14:59:19.300Z,20.47
2019-04-21T15:01:49.463Z,23.40
2019-04-21T15:04:19.373Z,20.47
2019-04-21T15:06:49.560Z,22.00
2019-04-21T15:09:18.882Z,20.17
2019-04-21T15:11:47.754Z,20.43
2019-04-21T15:14:17.761Z,22.53
2019-04-21T15:16:47.082Z,17.83
2019-04-21T15:19:16.891Z,19.43
2019-04-21T15:21:45.592Z,18.00
2019-04-21T15:24:14.345Z,16.37
2019-04-21T15:26:44.328Z,16.80
2019-04-21T15:29:13.257Z,16.37
2019-04-21T15:31:44.605Z,16.70
2019-04-21T15:34:13.126Z,15.90
2019-04-21T15:36:42.040Z,15.93
2019-04-21T15:39:11.904Z,16.83
2019-04-21T15:41:42.802Z,21.40
2019-04-21T15:44:12.479Z,30.20
2019-04-21T15:46:41.906Z,22.67
2019-04-21T15:49:11.243Z,27.63
2019-04-21T15:51:40.094Z,18.17
2019-04-21T15:54:08.933Z,20.63
2019-04-21T15:56:44.955Z,20.53
2019-04-21T15:59:32.613Z,21.27
2019-04-21T16:02:19.137Z,21.77
2019-04-21T16:04:48.656Z,19.37
2019-04-21T16:07:18.058Z,20.43
2019-04-21T16:09:48.135Z,18.43
2019-04-21T16:12:17.811Z,18.77
2019-04-21T16:14:46.935Z,19.43
2019-04-21T16:17:17.097Z,19.30
2019-04-21T16:19:45.948Z,19.23
2019-04-21T16:22:14.814Z,20.97
2019-04-21T16:24:43.964Z,19.47
2019-04-21T16:27:12.831Z,19.77
2019-04-21T16:29:41.796Z,20.73
2019-04-21T16:32:11.250Z,19.40
2019-04-21T16:34:50.144Z,17.30
2019-04-21T16:37:11.838Z,19.07
2019-04-21T16:39:41.258Z,18.97
2019-04-21T16:42:10.206Z,18.60
2019-04-21T16:44:38.974Z,19.17
2019-04-21T16:47:07.737Z,18.40
2019-04-21T16:49:37.909Z,18.87
2019-04-21T16:52:16.384Z,18.87
2019-04-21T16:54:47.707Z,19.43
2019-04-21T16:57:39.751Z,18.67
2019-04-21T17:00:26.385Z,18.53
2019-04-21T17:02:43.366Z,18.20
2019-04-21T17:05:12.216Z,18.17
2019-04-21T17:07:41.050Z,16.93
2019-04-21T17:10:10.702Z,17.10
2019-04-21T17:12:39.526Z,16.17
2019-04-21T17:15:25.226Z,16.60
2019-04-21T17:18:00.420Z,16.40
2019-04-21T17:20:21.535Z,15.63
2019-04-21T17:22:39.587Z,14.57
2019-04-21T17:25:08.716Z,15.73
2019-04-21T17:27:38.889Z,14.43
2019-04-21T17:30:08.488Z,14.80
2019-04-21T17:32:42.365Z,16.30
2019-04-21T17:35:08.090Z,16.20
2019-04-21T17:37:38.227Z,14.73
2019-04-21T17:40:08.960Z,15.83
2019-04-21T17:42:46.380Z,19.57
2019-04-21T17:45:08.949Z,16.47
2019-04-21T17:47:45.696Z,15.77
2019-04-21T17:50:27.484Z,15.63
2019-04-21T17:53:05.249Z,14.63
2019-04-21T17:55:36.667Z,18.00
2019-04-21T17:58:15.001Z,14.17
2019-04-21T18:01:12.836Z,14.53
2019-04-21T18:03:40.713Z,14.67
2019-04-21T18:05:54.846Z,14.73
2019-04-21T18:08:33.904Z,13.30
2019-04-21T18:10:53.463Z,13.93
2019-04-21T18:13:13.647Z,13.93
2019-04-21T18:15:53.392Z,14.03
2019-04-21T18:18:10.432Z,12.90
2019-04-21T18:20:41.835Z,13.00
2019-04-21T18:23:39.879Z,12.97
2019-04-21T18:26:04.147Z,13.90
2019-04-21T18:28:30.611Z,14.07
2019-04-21T18:31:06.946Z,12.27
2019-04-21T18:33:40.382Z,12.80
2019-04-21T18:36:30.203Z,12.37
2019-04-21T18:39:30.030Z,12.33
2019-04-21T18:42:10.642Z,11.93
2019-04-21T18:45:13.051Z,12.80
2019-04-21T18:47:32.078Z,12.20
2019-04-21T18:49:50.327Z,12.60
2019-04-21T18:52:45.316Z,12.80
2019-04-21T18:55:33.861Z,12.27
2019-04-21T18:57:54.989Z,12.77
2019-04-21T19:00:30.684Z,13.00
2019-04-21T19:02:57.616Z,12.37
2019-04-21T19:05:27.348Z,13.20
2019-04-21T19:08:10.512Z,14.20
2019-04-21T19:10:41.803Z,13.87
2019-04-21T19:13:36.648Z,12.97
2019-04-21T19:15:41.383Z,12.00
2019-04-21T19:18:35.707Z,18.37
2019-04-21T19:20:43.348Z,13.73
2019-04-21T19:23:21.541Z,15.13
2019-04-21T19:25:46.604Z,14.17
2019-04-21T19:28:19.526Z,14.47
2019-04-21T19:30:51.077Z,12.63
2019-04-21T19:33:17.751Z,13.13
2019-04-21T19:35:29.884Z,11.80
2019-04-21T19:38:04.716Z,11.93
2019-04-21T19:40:45.910Z,13.10
2019-04-21T19:43:07.844Z,12.70
2019-04-21T19:45:44.415Z,11.80
2019-04-21T19:48:20.397Z,12.13
2019-04-21T19:50:54.334Z,11.90
2019-04-21T19:53:19.847Z,11.80
2019-04-21T19:55:32.017Z,11.10
2019-04-21T19:58:14.801Z,12.07
2019-04-21T20:00:44.512Z,10.87
2019-04-21T20:03:14.570Z,13.63
2019-04-21T20:05:51.636Z,10.93
2019-04-21T20:08:29.026Z,12.23
2019-04-21T20:11:01.170Z,12.37
2019-04-21T20:13:45.612Z,12.43
2019-04-21T20:16:03.832Z,12.73
2019-04-21T20:18:24.563Z,12.03
2019-04-21T20:20:45.975Z,11.90
2019-04-21T20:23:16.943Z,11.97
2019-04-21T20:25:49.869Z,13.43
2019-04-21T20:28:30.516Z,12.00
2019-04-21T20:31:06.804Z,11.33
2019-04-21T20:33:50.550Z,10.73
2019-04-21T20:36:12.938Z,11.77
2019-04-21T20:38:28.280Z,11.50
2019-04-21T20:40:56.373Z,11.10
2019-04-21T20:43:36.578Z,11.37
2019-04-21T20:46:23.829Z,11.33
2019-04-21T20:48:27.281Z,10.97
2019-04-21T20:51:06.408Z,10.83
2019-04-21T20:53:34.300Z,12.17
2019-04-21T20:55:59.257Z,11.70
2019-04-21T20:58:34.803Z,11.53
2019-04-21T21:01:33.178Z,11.70
2019-04-21T21:03:46.401Z,13.80
2019-04-21T21:06:03.765Z,12.10
2019-04-21T21:08:40.202Z,12.00
2019-04-21T21:11:00.861Z,10.57
2019-04-21T21:13:57.317Z,12.57
2019-04-21T21:16:13.558Z,12.10
2019-04-21T21:19:10.250Z,12.30
2019-04-21T21:21:11.440Z,12.10
2019-04-21T21:23:42.798Z,12.07
2019-04-21T21:26:18.805Z,11.50
2019-04-21T21:28:40.286Z,12.57
2019-04-21T21:31:13.440Z,11.97
2019-04-21T21:33:50.743Z,11.67
2019-04-21T21:36:13.897Z,11.97
2019-04-21T21:38:43.477Z,11.97
2019-04-21T21:41:03.637Z,11.30
2019-04-21T21:43:27.012Z,12.20
2019-04-21T21:45:59.509Z,11.57
2019-04-21T21:48:40.647Z,11.57
2019-04-21T21:51:08.217Z,11.17
2019-04-21T21:53:28.914Z,11.37
2019-04-21T21:55:56.523Z,11.13
2019-04-21T21:58:31.109Z,10.43
2019-04-21T22:00:58.916Z,10.63
2019-04-21T22:03:31.880Z,11.00
2019-04-21T22:06:19.618Z,11.50
2019-04-21T22:08:46.108Z,11.43
2019-04-21T22:11:15.819Z,11.57
2019-04-21T22:13:53.245Z,11.33
2019-04-21T22:16:17.671Z,11.27
2019-04-21T22:19:04.536Z,11.50
2019-04-21T22:21:36.504Z,11.43
2019-04-21T22:23:55.717Z,11.33
2019-04-21T22:26:16.197Z,12.67
2019-04-21T22:28:45.554Z,10.70
2019-04-21T22:31:19.632Z,11.20
2019-04-21T22:33:49.407Z,10.77
2019-04-21T22:36:29.207Z,11.07
2019-04-21T22:39:05.233Z,11.10
2019-04-21T22:41:28.160Z,11.03
2019-04-21T22:43:49.938Z,11.37
2019-04-21T22:46:16.161Z,11.30
2019-04-21T22:48:52.171Z,10.93
2019-04-21T22:51:25.166Z,12.40
2019-04-21T22:53:48.818Z,10.07
2019-04-21T22:56:23.600Z,11.07
2019-04-21T22:58:47.870Z,11.13
2019-04-21T23:01:20.105Z,9.73
2019-04-21T23:03:51.116Z,11.30
2019-04-21T23:06:22.021Z,11.07
2019-04-21T23:08:48.106Z,10.83
2019-04-21T23:11:18.051Z,10.77
2019-04-21T23:13:55.593Z,11.20
2019-04-21T23:16:20.526Z,10.67
2019-04-21T23:19:07.516Z,11.17
2019-04-21T23:21:31.678Z,11.43
2019-04-21T23:24:05.849Z,11.13
2019-04-21T23:26:37.904Z,10.37
2019-04-21T23:29:07.490Z,11.40
2019-04-21T23:31:39.867Z,11.30
2019-04-21T23:33:52.441Z,10.00
2019-04-21T23:36:25.996Z,11.80
2019-04-21T23:39:15.954Z,10.73
2019-04-21T23:41:46.194Z,10.63
2019-04-21T23:44:15.178Z,11.73
2019-04-21T23:46:42.599Z,11.77
2019-04-21T23:49:22.932Z,11.10
2019-04-21T23:51:52.064Z,10.70
2019-04-21T23:54:13.335Z,11.00
2019-04-21T23:56:45.514Z,11.07
2019-04-21T23:59:14.655Z,11.27
